createdAt,value
2019-02-15T00:02:50.111Z,297.97
2019-02-15T00:05:56.957Z,321.03
2019-02-15T00:09:04.775Z,341.37
2019-02-15T00:12:13.337Z,367.10
2019-02-15T00:15:20.167Z,376.93
2019-02-15T00:18:44.856Z,291.43
2019-02-15T00:21:53.456Z,271.13
2019-02-15T00:25:00.441Z,252.33
2019-02-15T00:28:07.121Z,318.37
2019-02-15T00:31:17.189Z,332.37
2019-02-15T00:34:24.033Z,284.57
2019-02-15T00:37:30.993Z,290.57
2019-02-15T00:40:37.757Z,288.33
2019-02-15T00:43:44.755Z,278.67
2019-02-15T00:47:10.359Z,300.20
2019-02-15T00:50:35.259Z,312.67
2019-02-15T00:53:47.930Z,267.27
2019-02-15T00:57:08.778Z,286.90
2019-02-15T01:00:28.550Z,331.87
2019-02-15T01:03:54.235Z,260.67
2019-02-15T01:07:07.231Z,290.90
2019-02-15T01:10:41.903Z,258.97
2019-02-15T01:13:48.641Z,258.77
2019-02-15T01:16:55.390Z,299.97
2019-02-15T01:20:02.060Z,305.23
2019-02-15T01:23:08.826Z,250.40
2019-02-15T01:26:21.751Z,244.13
2019-02-15T01:29:45.531Z,249.00
2019-02-15T01:33:11.169Z,249.80
2019-02-15T01:36:35.671Z,243.07
2019-02-15T01:39:47.859Z,229.90
2019-02-15T01:43:03.375Z,260.63
2019-02-15T01:46:17.207Z,251.50
2019-02-15T01:49:23.939Z,208.60
2019-02-15T01:52:30.747Z,255.33
2019-02-15T01:55:37.479Z,214.30
2019-02-15T01:58:44.465Z,199.50
2019-02-15T02:01:51.259Z,187.50
2019-02-15T02:04:58.077Z,222.60
2019-02-15T02:08:06.475Z,226.70
2019-02-15T02:11:13.175Z,233.20
2019-02-15T02:14:19.965Z,213.33
2019-02-15T02:17:26.732Z,243.30
2019-02-15T02:20:35.027Z,221.60
2019-02-15T02:23:41.763Z,241.73
2019-02-15T02:26:48.594Z,248.30
2019-02-15T02:29:55.283Z,241.67
2019-02-15T02:33:02.091Z,234.37
2019-02-15T02:36:08.835Z,230.93
2019-02-15T02:39:15.769Z,257.70
2019-02-15T02:42:22.554Z,229.60
2019-02-15T02:45:29.280Z,212.87
2019-02-15T02:48:37.454Z,276.63
2019-02-15T02:51:45.229Z,260.23
2019-02-15T02:54:52.025Z,262.83
2019-02-15T02:57:58.823Z,258.63
2019-02-15T03:01:05.544Z,310.37
2019-02-15T03:04:12.588Z,274.17
2019-02-15T03:07:19.700Z,305.83
2019-02-15T03:10:28.352Z,260.47
2019-02-15T03:13:35.249Z,265.53
2019-02-15T03:16:43.106Z,275.63
2019-02-15T03:19:49.849Z,294.40
2019-02-15T03:22:56.631Z,273.50
2019-02-15T03:26:03.397Z,304.37
2019-02-15T03:29:10.089Z,254.17
2019-02-15T03:32:16.893Z,275.27
2019-02-15T03:35:23.633Z,298.80
2019-02-15T03:38:53.361Z,263.90
2019-02-15T03:42:00.055Z,296.70
2019-02-15T03:45:06.847Z,309.90
2019-02-15T03:48:13.546Z,302.30
2019-02-15T03:51:20.277Z,305.60
2019-02-15T03:54:26.979Z,324.50
2019-02-15T03:57:33.756Z,397.47
2019-02-15T04:00:40.512Z,323.43
2019-02-15T04:03:47.241Z,258.10
2019-02-15T04:06:54.018Z,425.80
2019-02-15T04:10:00.759Z,305.27
2019-02-15T04:13:07.525Z,337.23
2019-02-15T04:16:14.255Z,431.10
2019-02-15T04:19:20.991Z,387.17
2019-02-15T04:22:27.791Z,317.23
2019-02-15T04:25:34.847Z,312.40
2019-02-15T04:28:41.525Z,337.37
2019-02-15T04:31:48.318Z,311.63
2019-02-15T04:34:55.049Z,364.67
2019-02-15T04:38:02.755Z,308.30
2019-02-15T04:41:09.521Z,335.63
2019-02-15T04:44:16.266Z,246.47
2019-02-15T04:47:23.000Z,214.67
2019-02-15T04:50:29.743Z,249.33
2019-02-15T04:53:36.487Z,237.20
2019-02-15T04:56:43.226Z,239.43
2019-02-15T04:59:49.981Z,250.30
2019-02-15T05:02:56.709Z,242.43
2019-02-15T05:06:03.492Z,275.37
2019-02-15T05:09:10.194Z,296.00
2019-02-15T05:12:17.812Z,282.27
2019-02-15T05:15:24.544Z,336.77
2019-02-15T05:18:31.268Z,302.00
2019-02-15T05:21:38.009Z,332.77
2019-02-15T05:24:44.783Z,572.73
2019-02-15T05:27:51.505Z,1267.13
2019-02-15T05:30:58.237Z,1133.13
2019-02-15T05:34:05.000Z,953.17
2019-02-15T05:37:11.729Z,542.90
2019-02-15T05:40:18.450Z,726.33
2019-02-15T05:43:25.224Z,533.67
2019-02-15T05:46:32.041Z,520.00
2019-02-15T05:49:38.783Z,394.27
2019-02-15T05:52:45.601Z,258.07
2019-02-15T05:55:52.353Z,259.63
2019-02-15T05:59:00.687Z,258.40
2019-02-15T06:02:07.518Z,219.50
2019-02-15T06:05:14.283Z,233.33
2019-02-15T06:08:21.003Z,205.93
2019-02-15T06:11:27.750Z,256.83
2019-02-15T06:14:34.574Z,259.20
2019-02-15T06:17:41.321Z,297.70
2019-02-15T06:20:48.110Z,320.73
2019-02-15T06:23:54.843Z,291.10
2019-02-15T06:27:01.622Z,255.73
2019-02-15T06:30:08.986Z,298.10
2019-02-15T06:33:15.753Z,260.87
2019-02-15T06:36:22.923Z,337.33
2019-02-15T06:39:29.707Z,338.47
2019-02-15T06:42:36.441Z,292.63
2019-02-15T06:45:43.184Z,291.87
2019-02-15T06:48:49.939Z,307.40
2019-02-15T06:51:56.776Z,291.93
2019-02-15T06:55:03.525Z,227.13
2019-02-15T06:58:10.429Z,241.67
2019-02-15T07:01:36.195Z,193.73
2019-02-15T07:05:10.736Z,176.07
2019-02-15T07:08:17.561Z,159.43
2019-02-15T07:11:24.591Z,185.27
2019-02-15T07:14:31.339Z,178.80
2019-02-15T07:17:38.098Z,182.87
2019-02-15T07:20:44.899Z,200.40
2019-02-15T07:23:51.682Z,220.87
2019-02-15T07:26:58.409Z,208.70
2019-02-15T07:30:06.153Z,197.13
2019-02-15T07:33:12.851Z,217.43
2019-02-15T07:36:19.610Z,169.00
2019-02-15T07:39:26.415Z,164.03
2019-02-15T07:42:33.243Z,153.73
2019-02-15T07:45:43.048Z,150.27
2019-02-15T07:48:50.016Z,174.60
2019-02-15T07:51:56.781Z,223.20
2019-02-15T07:55:03.623Z,187.80
2019-02-15T07:58:10.382Z,141.03
2019-02-15T08:01:17.243Z,160.70
2019-02-15T08:04:25.032Z,230.30
2019-02-15T08:07:31.773Z,209.30
2019-02-15T08:10:39.546Z,113.67
2019-02-15T08:13:46.498Z,77.00
2019-02-15T08:16:53.287Z,91.67
2019-02-15T08:20:01.659Z,77.80
2019-02-15T08:23:09.471Z,83.93
2019-02-15T08:26:16.296Z,98.70
2019-02-15T08:29:23.001Z,79.83
2019-02-15T08:32:29.826Z,101.70
2019-02-15T08:35:36.635Z,96.30
2019-02-15T08:38:43.354Z,121.80
2019-02-15T08:42:01.253Z,89.83
2019-02-15T08:44:58.504Z,86.03
2019-02-15T08:48:05.312Z,75.50
2019-02-15T08:51:12.035Z,80.27
2019-02-15T08:54:18.904Z,90.33
2019-02-15T08:57:25.759Z,86.17
2019-02-15T09:00:32.608Z,88.70
2019-02-15T09:03:39.454Z,58.00
2019-02-15T09:06:46.309Z,64.70
2019-02-15T09:09:53.213Z,90.43
2019-02-15T09:13:00.046Z,66.90
2019-02-15T09:16:10.453Z,95.13
2019-02-15T09:19:15.366Z,59.27
2019-02-15T09:22:22.116Z,39.63
2019-02-15T09:25:28.901Z,47.17
2019-02-15T09:28:45.976Z,98.73
2019-02-15T09:31:52.832Z,89.20
2019-02-15T09:34:59.602Z,82.87
2019-02-15T09:38:06.463Z,73.90
2019-02-15T09:41:13.276Z,71.13
2019-02-15T09:44:20.033Z,53.70
2019-02-15T09:47:26.834Z,36.27
2019-02-15T09:50:34.008Z,44.90
2019-02-15T09:53:40.931Z,32.03
2019-02-15T09:56:47.754Z,45.13
2019-02-15T09:59:54.684Z,30.07
2019-02-15T10:03:02.350Z,47.60
2019-02-15T10:06:10.604Z,44.63
2019-02-15T10:09:17.446Z,50.43
2019-02-15T10:12:24.268Z,54.53
2019-02-15T10:15:31.042Z,32.83
2019-02-15T10:18:37.790Z,26.50
2019-02-15T10:21:44.627Z,33.17
2019-02-15T10:24:51.400Z,121.80
2019-02-15T10:27:58.232Z,49.40
2019-02-15T10:31:04.972Z,43.43
2019-02-15T10:34:11.736Z,106.80
2019-02-15T10:37:18.494Z,52.40
2019-02-15T10:40:25.272Z,44.90
2019-02-15T10:43:32.063Z,69.93
2019-02-15T10:46:39.858Z,88.87
2019-02-15T10:49:46.980Z,57.73
2019-02-15T10:52:53.799Z,106.43
2019-02-15T10:56:00.600Z,60.33
2019-02-15T10:59:07.396Z,61.57
2019-02-15T11:02:14.178Z,64.30
2019-02-15T11:05:21.203Z,60.90
2019-02-15T11:08:28.020Z,62.30
2019-02-15T11:11:34.882Z,53.93
2019-02-15T11:14:41.638Z,70.70
2019-02-15T11:17:48.562Z,51.13
2019-02-15T11:20:55.540Z,52.27
2019-02-15T11:24:02.296Z,52.27
2019-02-15T11:27:10.188Z,55.40
2019-02-15T11:30:17.032Z,53.47
2019-02-15T11:33:23.812Z,62.37
2019-02-15T11:36:30.532Z,58.67
2019-02-15T11:39:37.318Z,62.97
2019-02-15T11:42:44.130Z,63.07
2019-02-15T11:45:51.076Z,54.83
2019-02-15T11:48:57.924Z,52.67
2019-02-15T11:52:04.747Z,58.07
2019-02-15T11:55:11.513Z,58.80
2019-02-15T11:58:18.335Z,62.23
2019-02-15T12:01:25.094Z,76.87
2019-02-15T12:04:32.945Z,62.53
2019-02-15T12:07:39.662Z,63.63
2019-02-15T12:10:46.434Z,50.77
2019-02-15T12:13:54.938Z,53.07
2019-02-15T12:17:05.618Z,35.80
2019-02-15T12:20:10.628Z,40.17
2019-02-15T12:23:17.516Z,43.70
2019-02-15T12:26:24.314Z,64.07
2019-02-15T12:29:31.059Z,49.10
2019-02-15T12:32:37.819Z,51.93
2019-02-15T12:35:44.590Z,49.37
2019-02-15T12:38:51.368Z,51.17
2019-02-15T12:41:58.168Z,39.27
2019-02-15T12:45:05.480Z,38.77
2019-02-15T12:48:12.227Z,39.60
2019-02-15T12:51:19.116Z,42.23
2019-02-15T12:54:25.918Z,42.37
2019-02-15T12:57:32.920Z,43.20
2019-02-15T13:00:40.165Z,46.87
2019-02-15T13:03:47.000Z,38.03
2019-02-15T13:06:53.806Z,43.53
2019-02-15T13:10:00.632Z,52.03
2019-02-15T13:13:07.405Z,48.37
2019-02-15T13:16:14.360Z,46.70
2019-02-15T13:19:21.630Z,45.97
2019-02-15T13:22:28.373Z,47.23
2019-02-15T13:25:37.053Z,50.73
2019-02-15T13:28:43.499Z,40.60
2019-02-15T13:31:50.257Z,36.40
2019-02-15T13:34:57.043Z,36.90
2019-02-15T13:38:03.973Z,41.83
2019-02-15T13:41:11.958Z,40.27
2019-02-15T13:44:18.946Z,47.63
2019-02-15T13:47:34.313Z,45.73
2019-02-15T13:50:34.296Z,47.93
2019-02-15T13:53:41.096Z,48.30
2019-02-15T13:56:48.097Z,57.60
2019-02-15T13:59:54.835Z,61.70
2019-02-15T14:03:01.593Z,72.33
2019-02-15T14:06:08.423Z,75.43
2019-02-15T14:09:15.222Z,56.23
2019-02-15T14:12:21.904Z,71.33
2019-02-15T14:15:28.635Z,63.67
2019-02-15T14:18:36.326Z,70.93
2019-02-15T14:21:44.631Z,76.57
2019-02-15T14:24:51.571Z,53.90
2019-02-15T14:27:58.359Z,50.50
2019-02-15T14:31:05.271Z,78.80
2019-02-15T14:34:12.035Z,53.57
2019-02-15T14:37:18.894Z,48.00
2019-02-15T14:40:25.769Z,54.00
2019-02-15T14:43:32.541Z,83.47
2019-02-15T14:46:39.371Z,85.53
2019-02-15T14:49:46.195Z,98.83
2019-02-15T14:52:53.078Z,110.20
2019-02-15T14:55:59.949Z,94.73
2019-02-15T14:59:06.802Z,94.67
2019-02-15T15:02:13.676Z,90.03
2019-02-15T15:05:20.623Z,91.80
2019-02-15T15:08:27.460Z,135.60
2019-02-15T15:11:34.274Z,116.20
2019-02-15T15:14:41.183Z,154.30
2019-02-15T15:17:49.978Z,140.23
2019-02-15T15:20:56.658Z,141.70
2019-02-15T15:24:03.455Z,138.00
2019-02-15T15:27:10.237Z,145.27
2019-02-15T15:30:16.982Z,146.97
2019-02-15T15:33:23.780Z,160.40
2019-02-15T15:36:30.695Z,164.47
2019-02-15T15:39:37.579Z,165.07
2019-02-15T15:42:46.305Z,163.73
2019-02-15T15:45:53.068Z,165.30
2019-02-15T15:48:59.830Z,149.37
2019-02-15T15:52:06.663Z,162.10
2019-02-15T15:55:13.424Z,182.27
2019-02-15T15:58:21.896Z,174.03
2019-02-15T16:01:28.841Z,175.67
2019-02-15T16:04:35.773Z,199.67
2019-02-15T16:07:43.592Z,308.07
2019-02-15T16:10:51.726Z,343.30
2019-02-15T16:13:58.465Z,334.67
2019-02-15T16:17:05.259Z,319.23
2019-02-15T16:20:12.105Z,291.87
2019-02-15T16:23:18.945Z,303.87
2019-02-15T16:26:25.783Z,305.83
2019-02-15T16:29:32.767Z,302.43
2019-02-15T16:32:39.647Z,352.07
2019-02-15T16:35:46.529Z,366.17
2019-02-15T16:38:53.339Z,307.93
2019-02-15T16:42:00.145Z,315.50
2019-02-15T16:45:07.306Z,318.03
2019-02-15T16:48:14.127Z,300.70
2019-02-15T16:51:20.959Z,272.63
2019-02-15T16:54:27.922Z,250.87
2019-02-15T16:57:34.845Z,254.80
2019-02-15T17:00:41.641Z,259.23
2019-02-15T17:03:48.605Z,270.00
2019-02-15T17:06:55.389Z,243.57
2019-02-15T17:10:02.178Z,245.63
2019-02-15T17:13:10.207Z,218.10
2019-02-15T17:16:17.019Z,235.77
2019-02-15T17:19:23.808Z,261.47
2019-02-15T17:22:30.592Z,278.30
2019-02-15T17:25:37.467Z,294.37
2019-02-15T17:28:44.221Z,324.90
2019-02-15T17:31:51.061Z,401.30
2019-02-15T17:34:57.901Z,385.70
2019-02-15T17:38:04.711Z,390.07
2019-02-15T17:41:11.657Z,289.57
2019-02-15T17:44:18.529Z,285.00
2019-02-15T17:47:25.365Z,323.13
2019-02-15T17:50:33.903Z,264.87
2019-02-15T17:53:40.754Z,239.47
2019-02-15T17:56:47.645Z,212.87
2019-02-15T17:59:54.518Z,205.03
2019-02-15T18:03:01.291Z,186.83
2019-02-15T18:06:08.312Z,178.00
2019-02-15T18:09:15.377Z,231.53
2019-02-15T18:12:22.203Z,241.77
2019-02-15T18:15:28.984Z,277.30
2019-02-15T18:18:37.732Z,184.93
2019-02-15T18:21:44.601Z,202.63
2019-02-15T18:24:51.455Z,245.17
2019-02-15T18:27:58.297Z,232.20
2019-02-15T18:31:05.097Z,211.50
2019-02-15T18:34:11.944Z,239.00
2019-02-15T18:37:19.949Z,220.10
2019-02-15T18:40:26.711Z,223.10
2019-02-15T18:43:33.577Z,220.43
2019-02-15T18:46:40.341Z,220.90
2019-02-15T18:49:48.078Z,204.70
2019-02-15T18:52:55.000Z,226.70
2019-02-15T18:56:01.819Z,273.77
2019-02-15T18:59:08.734Z,252.13
2019-02-15T19:02:15.600Z,234.70
2019-02-15T19:05:22.487Z,216.93
2019-02-15T19:08:29.250Z,207.20
2019-02-15T19:11:36.091Z,203.93
2019-02-15T19:14:43.874Z,189.30
2019-02-15T19:17:50.755Z,204.00
2019-02-15T19:20:57.587Z,206.93
2019-02-15T19:24:04.429Z,197.97
2019-02-15T19:27:11.217Z,215.40
2019-02-15T19:30:20.268Z,223.50
2019-02-15T19:33:27.103Z,238.33
2019-02-15T19:36:33.939Z,258.30
2019-02-15T19:39:40.886Z,220.40
2019-02-15T19:42:49.209Z,226.50
2019-02-15T19:45:56.146Z,219.47
2019-02-15T19:49:02.970Z,231.47
2019-02-15T19:52:09.739Z,230.13
2019-02-15T19:55:17.581Z,229.47
2019-02-15T19:58:24.363Z,235.27
2019-02-15T20:01:31.221Z,250.43
2019-02-15T20:04:38.060Z,281.77
2019-02-15T20:07:44.765Z,252.67
2019-02-15T20:10:51.545Z,273.37
2019-02-15T20:13:59.961Z,274.43
2019-02-15T20:17:08.057Z,219.00
2019-02-15T20:20:14.915Z,226.57
2019-02-15T20:23:22.928Z,228.20
2019-02-15T20:26:30.777Z,262.07
2019-02-15T20:29:37.654Z,238.57
2019-02-15T20:32:44.523Z,242.60
2019-02-15T20:35:51.259Z,289.43
2019-02-15T20:38:58.081Z,427.00
2019-02-15T20:42:04.911Z,375.87
2019-02-15T20:45:14.419Z,269.90
2019-02-15T20:48:22.331Z,304.53
2019-02-15T20:51:29.247Z,283.73
2019-02-15T20:54:36.029Z,295.50
2019-02-15T20:57:42.811Z,324.57
2019-02-15T21:00:49.692Z,342.27
2019-02-15T21:03:56.464Z,358.00
2019-02-15T21:07:03.386Z,405.07
2019-02-15T21:10:10.911Z,342.87
2019-02-15T21:13:20.448Z,284.93
2019-02-15T21:16:26.299Z,277.23
2019-02-15T21:19:33.147Z,249.70
2019-02-15T21:22:39.983Z,237.67
2019-02-15T21:25:48.101Z,258.17
2019-02-15T21:28:55.097Z,247.37
2019-02-15T21:32:01.997Z,263.53
2019-02-15T21:35:08.779Z,306.33
2019-02-15T21:38:17.282Z,344.20
2019-02-15T21:41:24.513Z,315.20
2019-02-15T21:44:31.435Z,295.30
2019-02-15T21:47:38.363Z,333.57
2019-02-15T21:50:45.255Z,291.73
2019-02-15T21:53:52.159Z,323.77
2019-02-15T21:56:58.934Z,339.67
2019-02-15T22:00:07.455Z,329.63
2019-02-15T22:03:15.923Z,357.30
2019-02-15T22:06:22.682Z,304.60
2019-02-15T22:09:29.445Z,304.10
2019-02-15T22:12:36.233Z,307.63
2019-02-15T22:15:42.981Z,296.67
2019-02-15T22:18:49.891Z,298.00
2019-02-15T22:21:56.701Z,317.50
2019-02-15T22:25:03.456Z,303.43
2019-02-15T22:28:10.204Z,309.77
2019-02-15T22:31:17.182Z,283.03
2019-02-15T22:34:23.831Z,287.90
2019-02-15T22:37:30.593Z,298.50
2019-02-15T22:40:39.163Z,316.63
2019-02-15T22:43:46.588Z,311.17
2019-02-15T22:46:53.433Z,322.17
2019-02-15T22:50:01.111Z,296.80
2019-02-15T22:53:07.878Z,305.93
2019-02-15T22:56:14.665Z,318.57
2019-02-15T22:59:21.595Z,371.47
2019-02-15T23:02:28.351Z,356.23
2019-02-15T23:05:35.213Z,325.00
2019-02-15T23:08:42.020Z,315.80
2019-02-15T23:11:48.870Z,292.27
2019-02-15T23:14:55.704Z,269.93
2019-02-15T23:18:02.421Z,260.37
2019-02-15T23:21:09.196Z,249.93
2019-02-15T23:24:15.926Z,253.17
2019-02-15T23:27:22.764Z,241.27
2019-02-15T23:30:29.589Z,256.27
2019-02-15T23:33:36.393Z,209.23
2019-02-15T23:36:45.253Z,236.40
2019-02-15T23:39:52.286Z,223.00
2019-02-15T23:42:59.087Z,214.67
2019-02-15T23:46:05.870Z,226.97
2019-02-15T23:49:13.670Z,206.47
2019-02-15T23:52:20.490Z,203.03
2019-02-15T23:55:27.239Z,176.53
2019-02-15T23:58:35.800Z,208.57
